createdAt,value
2023-05-17T00:00:53.781Z,9.00
2023-05-17T00:03:21.327Z,9.10
2023-05-17T00:05:48.948Z,9.10
2023-05-17T00:08:16.737Z,9.10
2023-05-17T00:10:44.290Z,9.20
2023-05-17T00:13:11.862Z,9.20
2023-05-17T00:15:39.434Z,9.20
2023-05-17T00:18:07.050Z,9.10
2023-05-17T00:20:35.887Z,9.10
2023-05-17T00:23:04.152Z,9.10
2023-05-17T00:25:31.810Z,9.00
2023-05-17T00:27:59.303Z,8.90
2023-05-17T00:30:29.168Z,8.80
2023-05-17T00:32:57.119Z,8.90
2023-05-17T00:35:24.758Z,8.80
2023-05-17T00:37:52.905Z,8.80
2023-05-17T00:40:20.427Z,8.80
2023-05-17T00:42:48.086Z,8.80
2023-05-17T00:45:16.119Z,8.80
2023-05-17T00:47:43.790Z,8.70
2023-05-17T00:50:12.195Z,8.70
2023-05-17T00:52:39.873Z,8.70
2023-05-17T00:55:07.702Z,8.70
2023-05-17T00:57:35.805Z,8.60
2023-05-17T01:00:03.937Z,8.50
2023-05-17T01:02:31.612Z,8.50
2023-05-17T01:04:59.282Z,8.50
2023-05-17T01:07:27.096Z,8.40
2023-05-17T01:09:55.209Z,8.40
2023-05-17T01:12:37.501Z,8.40
2023-05-17T01:15:26.068Z,8.30
2023-05-17T01:18:00.207Z,8.30
2023-05-17T01:20:41.501Z,8.30
2023-05-17T01:23:35.763Z,8.30
2023-05-17T01:26:17.659Z,8.30
2023-05-17T01:28:49.655Z,8.20
2023-05-17T01:31:18.605Z,8.30
2023-05-17T01:33:46.750Z,8.40
2023-05-17T01:36:14.406Z,8.40
2023-05-17T01:38:42.364Z,8.40
2023-05-17T01:41:43.819Z,8.40
2023-05-17T01:44:17.075Z,8.40
2023-05-17T01:46:44.725Z,8.40
2023-05-17T01:49:41.832Z,8.40
2023-05-17T01:52:18.689Z,8.30
2023-05-17T01:55:10.692Z,8.30
2023-05-17T01:57:39.592Z,8.30
2023-05-17T02:00:09.494Z,8.30
2023-05-17T02:02:43.362Z,8.30
2023-05-17T02:05:11.218Z,8.40
2023-05-17T02:07:40.877Z,8.40
2023-05-17T02:10:08.900Z,8.40
2023-05-17T02:12:37.441Z,8.50
2023-05-17T02:15:05.496Z,8.60
2023-05-17T02:17:33.177Z,8.60
2023-05-17T02:20:00.671Z,8.50
2023-05-17T02:22:28.333Z,8.50
2023-05-17T02:24:58.453Z,8.50
2023-05-17T02:27:25.945Z,8.50
2023-05-17T02:29:53.928Z,8.50
2023-05-17T02:32:21.551Z,8.60
2023-05-17T02:34:49.042Z,8.50
2023-05-17T02:37:16.545Z,8.50
2023-05-17T02:39:45.250Z,8.60
2023-05-17T02:42:12.792Z,8.60
2023-05-17T02:44:40.328Z,8.60
2023-05-17T02:47:07.870Z,8.60
2023-05-17T02:49:36.240Z,8.60
2023-05-17T02:52:04.673Z,8.60
2023-05-17T02:54:32.193Z,8.60
2023-05-17T02:56:59.746Z,8.70
2023-05-17T02:59:27.209Z,8.70
2023-05-17T03:01:55.126Z,8.70
2023-05-17T03:04:22.992Z,8.70
2023-05-17T03:06:51.176Z,8.70
2023-05-17T03:09:19.274Z,8.70
2023-05-17T03:11:49.961Z,8.70
2023-05-17T03:14:22.400Z,8.70
2023-05-17T03:16:50.822Z,8.70
2023-05-17T03:19:18.848Z,8.70
2023-05-17T03:21:47.081Z,8.70
2023-05-17T03:24:14.815Z,8.70
2023-05-17T03:26:43.010Z,8.70
2023-05-17T03:29:12.552Z,8.60
2023-05-17T03:31:42.979Z,8.60
2023-05-17T03:34:10.510Z,8.60
2023-05-17T03:36:40.728Z,8.70
2023-05-17T03:39:09.031Z,8.70
2023-05-17T03:41:39.110Z,8.70
2023-05-17T03:44:06.666Z,8.80
2023-05-17T03:46:34.937Z,8.80
2023-05-17T03:49:03.179Z,8.90
2023-05-17T03:51:32.790Z,8.90
2023-05-17T03:54:01.747Z,8.90
2023-05-17T03:56:31.732Z,8.90
2023-05-17T03:58:59.466Z,8.90
2023-05-17T04:01:27.731Z,8.90
2023-05-17T04:03:55.544Z,9.00
2023-05-17T04:06:24.145Z,8.90
2023-05-17T04:08:55.096Z,9.00
2023-05-17T04:11:26.610Z,9.00
2023-05-17T04:13:55.407Z,9.00
2023-05-17T04:16:23.227Z,8.90
2023-05-17T04:18:53.800Z,8.90
2023-05-17T04:21:21.498Z,9.00
2023-05-17T04:23:50.763Z,9.00
2023-05-17T04:26:18.745Z,9.00
2023-05-17T04:28:46.293Z,9.00
2023-05-17T04:31:16.917Z,9.10
2023-05-17T04:33:45.855Z,9.10
2023-05-17T04:36:13.840Z,9.00
2023-05-17T04:38:42.649Z,8.90
2023-05-17T04:41:12.949Z,8.90
2023-05-17T04:43:42.129Z,8.90
2023-05-17T04:46:16.165Z,8.90
2023-05-17T04:48:44.313Z,9.00
2023-05-17T04:51:11.935Z,9.00
2023-05-17T04:53:39.686Z,9.00
2023-05-17T04:56:11.621Z,9.10
2023-05-17T04:58:39.122Z,9.00
2023-05-17T05:01:07.231Z,8.90
2023-05-17T05:03:35.546Z,9.00
2023-05-17T05:06:04.330Z,8.90
2023-05-17T05:08:33.859Z,8.90
2023-05-17T05:11:01.596Z,9.10
2023-05-17T05:13:30.328Z,9.00
2023-05-17T05:15:57.860Z,9.10
2023-05-17T05:18:26.648Z,9.10
2023-05-17T05:20:54.205Z,9.00
2023-05-17T05:23:22.063Z,9.10
2023-05-17T05:25:50.038Z,9.10
2023-05-17T05:28:18.132Z,9.10
2023-05-17T05:30:45.916Z,9.10
2023-05-17T05:33:15.003Z,9.20
2023-05-17T05:35:43.498Z,9.20
2023-05-17T05:38:11.229Z,9.20
2023-05-17T05:40:38.693Z,9.10
2023-05-17T05:43:06.425Z,9.20
2023-05-17T05:45:34.179Z,9.10
2023-05-17T05:48:05.677Z,9.20
2023-05-17T05:50:35.003Z,9.20
2023-05-17T05:53:18.078Z,9.30
2023-05-17T05:55:49.860Z,9.30
2023-05-17T05:58:17.747Z,9.40
2023-05-17T06:00:46.219Z,9.40
2023-05-17T06:03:14.463Z,9.40
2023-05-17T06:05:42.219Z,9.50
2023-05-17T06:08:09.935Z,9.50
2023-05-17T06:10:37.532Z,9.50
2023-05-17T06:13:05.194Z,9.50
2023-05-17T06:15:32.694Z,9.40
2023-05-17T06:18:00.645Z,9.60
2023-05-17T06:20:28.646Z,9.60
2023-05-17T06:22:56.393Z,9.70
2023-05-17T06:25:23.872Z,9.70
2023-05-17T06:27:51.380Z,9.80
2023-05-17T06:30:18.927Z,9.90
2023-05-17T06:32:46.529Z,9.90
2023-05-17T06:35:14.080Z,10.00
2023-05-17T06:37:41.605Z,10.10
2023-05-17T06:40:31.404Z,10.00
2023-05-17T06:43:00.933Z,10.10
2023-05-17T06:45:28.765Z,10.10
2023-05-17T06:47:56.344Z,10.00
2023-05-17T06:50:24.190Z,10.10
2023-05-17T06:52:51.704Z,10.20
2023-05-17T06:55:19.344Z,10.10
2023-05-17T06:57:46.860Z,10.10
2023-05-17T07:00:15.407Z,10.20
2023-05-17T07:02:42.993Z,10.80
2023-05-17T07:05:11.073Z,10.20
2023-05-17T07:07:38.846Z,10.20
2023-05-17T07:10:09.594Z,10.30
2023-05-17T07:12:37.197Z,10.30
2023-05-17T07:15:05.211Z,10.50
2023-05-17T07:17:32.990Z,10.50
2023-05-17T07:20:01.067Z,10.60
2023-05-17T07:22:28.906Z,10.70
2023-05-17T07:24:56.468Z,10.60
2023-05-17T07:27:24.080Z,10.60
2023-05-17T07:29:51.616Z,10.70
2023-05-17T07:32:19.122Z,10.80
2023-05-17T07:34:46.662Z,10.90
2023-05-17T07:37:14.318Z,10.90
2023-05-17T07:39:41.801Z,10.90
2023-05-17T07:42:09.402Z,10.90
2023-05-17T07:44:36.913Z,10.90
2023-05-17T07:47:04.615Z,11.10
2023-05-17T07:49:32.571Z,11.00
2023-05-17T07:52:00.344Z,11.10
2023-05-17T07:54:27.869Z,11.00
2023-05-17T07:56:55.709Z,11.10
2023-05-17T07:59:23.730Z,11.10
2023-05-17T08:01:52.010Z,11.30
2023-05-17T08:04:19.708Z,11.30
2023-05-17T08:06:48.504Z,11.50
2023-05-17T08:09:16.687Z,11.50
2023-05-17T08:11:48.437Z,11.60
2023-05-17T08:14:16.835Z,11.70
2023-05-17T08:16:46.376Z,11.80
2023-05-17T08:19:15.068Z,12.00
2023-05-17T08:21:43.793Z,11.90
2023-05-17T08:24:11.769Z,12.00
2023-05-17T08:26:39.307Z,12.10
2023-05-17T08:29:07.299Z,12.20
2023-05-17T08:31:34.975Z,12.10
2023-05-17T08:34:06.156Z,12.10
2023-05-17T08:36:33.871Z,12.20
2023-05-17T08:39:03.644Z,12.20
2023-05-17T08:41:32.776Z,12.40
2023-05-17T08:44:01.096Z,12.50
2023-05-17T08:46:29.558Z,12.50
2023-05-17T08:49:00.142Z,12.70
2023-05-17T08:51:28.847Z,12.70
2023-05-17T08:53:56.864Z,12.70
2023-05-17T08:56:26.664Z,12.90
2023-05-17T08:58:57.841Z,13.00
2023-05-17T09:01:27.181Z,13.30
2023-05-17T09:03:55.196Z,13.50
2023-05-17T09:06:24.049Z,13.70
2023-05-17T09:08:55.496Z,13.70
2023-05-17T09:11:31.346Z,13.70
2023-05-17T09:14:06.188Z,13.80
2023-05-17T09:16:36.348Z,13.60
2023-05-17T09:19:07.822Z,14.00
2023-05-17T09:21:35.618Z,14.30
2023-05-17T09:24:07.264Z,14.10
2023-05-17T09:26:46.226Z,14.20
2023-05-17T09:29:16.391Z,14.40
2023-05-17T09:31:44.862Z,14.40
2023-05-17T09:34:12.582Z,14.40
2023-05-17T09:36:43.647Z,14.70
2023-05-17T09:39:13.171Z,14.80
2023-05-17T09:41:47.080Z,15.00
2023-05-17T09:44:15.758Z,15.20
2023-05-17T09:46:46.262Z,15.60
2023-05-17T09:49:14.405Z,16.10
2023-05-17T09:51:44.401Z,16.20
2023-05-17T09:54:12.292Z,16.10
2023-05-17T09:56:40.092Z,16.50
2023-05-17T09:59:15.334Z,17.10
2023-05-17T10:01:45.420Z,17.50
2023-05-17T10:04:14.770Z,17.50
2023-05-17T10:06:49.823Z,17.40
2023-05-17T10:09:24.147Z,17.00
2023-05-17T10:11:52.999Z,17.30
2023-05-17T10:14:36.500Z,17.10
2023-05-17T10:17:05.052Z,16.70
2023-05-17T10:19:33.124Z,16.10
2023-05-17T10:24:39.165Z,16.20
2023-05-17T10:27:08.145Z,16.70
2023-05-17T10:29:38.386Z,16.80
2023-05-17T10:32:11.017Z,16.80
2023-05-17T10:34:39.621Z,17.20
2023-05-17T10:37:07.840Z,17.00
2023-05-17T10:39:38.413Z,16.70
2023-05-17T10:42:14.839Z,16.80
2023-05-17T10:44:43.661Z,16.60
2023-05-17T10:47:12.178Z,16.70
2023-05-17T10:49:41.629Z,16.50
2023-05-17T10:52:20.968Z,16.60
2023-05-17T10:54:52.234Z,16.70
2023-05-17T10:57:50.703Z,16.80
2023-05-17T11:00:30.567Z,16.20
2023-05-17T11:03:16.803Z,16.40
2023-05-17T11:06:05.693Z,16.40
2023-05-17T11:08:34.035Z,16.30
2023-05-17T11:11:11.792Z,16.40
2023-05-17T11:13:58.057Z,16.10
2023-05-17T11:16:34.740Z,15.80
2023-05-17T11:19:10.527Z,15.70
2023-05-17T11:21:48.267Z,15.80
2023-05-17T11:24:27.439Z,15.80
2023-05-17T11:26:57.961Z,15.70
2023-05-17T11:29:30.990Z,15.80
2023-05-17T11:31:58.675Z,15.90
2023-05-17T11:34:27.741Z,16.00
2023-05-17T11:36:56.597Z,16.00
2023-05-17T11:39:25.446Z,16.10
2023-05-17T11:41:55.056Z,16.30
2023-05-17T11:44:41.070Z,16.10
2023-05-17T11:47:09.899Z,15.70
2023-05-17T11:49:38.828Z,15.40
2023-05-17T11:52:07.408Z,15.20
2023-05-17T11:54:35.319Z,14.90
2023-05-17T11:57:04.100Z,14.80
2023-05-17T11:59:40.384Z,14.70
2023-05-17T12:02:08.300Z,14.70
2023-05-17T12:04:39.827Z,14.60
2023-05-17T12:07:11.564Z,14.70
2023-05-17T12:09:40.638Z,14.80
2023-05-17T12:12:08.865Z,15.00
2023-05-17T12:14:36.940Z,15.20
2023-05-17T12:17:09.763Z,15.50
2023-05-17T12:19:37.499Z,15.70
2023-05-17T12:22:12.945Z,15.90
2023-05-17T12:24:42.687Z,15.90
2023-05-17T12:27:11.247Z,16.00
2023-05-17T12:29:39.334Z,15.90
2023-05-17T12:32:09.559Z,15.90
2023-05-17T12:34:37.524Z,15.70
2023-05-17T12:37:10.347Z,15.50
2023-05-17T12:39:38.637Z,15.50
2023-05-17T12:42:06.902Z,15.60
2023-05-17T12:44:34.468Z,15.70
2023-05-17T12:47:05.055Z,15.60
2023-05-17T12:49:38.609Z,15.40
2023-05-17T12:52:06.471Z,15.40
2023-05-17T12:54:34.421Z,15.50
2023-05-17T12:57:14.886Z,15.40
2023-05-17T12:59:49.754Z,15.30
2023-05-17T13:02:19.319Z,15.10
2023-05-17T13:04:47.519Z,15.10
2023-05-17T13:07:23.980Z,14.90
2023-05-17T13:09:51.996Z,14.80
2023-05-17T13:12:24.763Z,14.70
2023-05-17T13:14:53.656Z,14.60
2023-05-17T13:17:35.620Z,14.50
2023-05-17T13:20:05.310Z,14.40
2023-05-17T13:22:34.032Z,14.50
2023-05-17T13:25:03.374Z,14.50
2023-05-17T13:27:31.081Z,14.50
2023-05-17T13:29:58.578Z,14.50
2023-05-17T13:32:26.206Z,14.50
2023-05-17T13:34:53.815Z,14.50
2023-05-17T13:37:22.274Z,14.50
2023-05-17T13:39:49.869Z,14.40
2023-05-17T13:42:17.665Z,14.50
2023-05-17T13:44:45.159Z,14.50
2023-05-17T13:47:13.022Z,14.40
2023-05-17T13:49:41.232Z,14.50
2023-05-17T13:52:09.256Z,14.40
2023-05-17T13:54:37.590Z,14.20
2023-05-17T13:57:06.209Z,14.10
2023-05-17T13:59:33.964Z,14.00
2023-05-17T14:02:01.507Z,14.00
2023-05-17T14:04:28.955Z,14.00
2023-05-17T14:06:56.465Z,13.90
2023-05-17T14:09:24.032Z,14.00
2023-05-17T14:11:51.619Z,14.10
2023-05-17T14:14:19.830Z,14.30
2023-05-17T14:16:47.452Z,14.40
2023-05-17T14:19:15.102Z,14.50
2023-05-17T14:21:42.717Z,14.60
2023-05-17T14:24:10.205Z,14.70
2023-05-17T14:26:37.727Z,14.80
2023-05-17T14:29:08.187Z,14.80
2023-05-17T14:31:35.870Z,15.00
2023-05-17T14:34:03.990Z,14.90
2023-05-17T14:36:33.433Z,14.90
2023-05-17T14:39:01.704Z,14.90
2023-05-17T14:41:29.160Z,15.00
2023-05-17T14:43:56.670Z,15.00
2023-05-17T14:46:24.330Z,15.10
2023-05-17T14:48:52.445Z,15.10
2023-05-17T14:51:20.039Z,15.20
2023-05-17T14:53:47.759Z,15.10
2023-05-17T14:56:15.421Z,15.20
2023-05-17T14:58:42.905Z,15.30
2023-05-17T15:01:10.419Z,15.30
2023-05-17T15:03:38.082Z,15.40
2023-05-17T15:06:08.336Z,15.50
2023-05-17T15:08:37.118Z,15.40
2023-05-17T15:11:04.688Z,15.50
2023-05-17T15:13:32.481Z,15.60
2023-05-17T15:16:00.054Z,15.70
2023-05-17T15:18:27.658Z,15.70
2023-05-17T15:20:55.098Z,15.80
2023-05-17T15:23:22.711Z,15.70
2023-05-17T15:25:50.223Z,15.80
2023-05-17T15:28:20.075Z,15.80
2023-05-17T15:30:47.902Z,15.70
2023-05-17T15:33:15.915Z,15.70
2023-05-17T15:35:44.656Z,15.70
2023-05-17T15:38:12.326Z,15.80
2023-05-17T15:40:39.892Z,15.80
2023-05-17T15:43:07.474Z,15.80
2023-05-17T15:45:35.048Z,15.90
2023-05-17T15:48:02.720Z,16.00
2023-05-17T15:50:30.338Z,16.00
2023-05-17T15:52:57.854Z,15.90
2023-05-17T15:55:25.392Z,15.80
2023-05-17T15:57:52.889Z,15.80
2023-05-17T16:00:21.030Z,15.70
2023-05-17T16:02:48.567Z,15.70
2023-05-17T16:05:16.513Z,15.70
2023-05-17T16:07:44.054Z,15.70
2023-05-17T16:10:11.818Z,15.70
2023-05-17T16:12:39.378Z,15.80
2023-05-17T16:15:07.787Z,15.90
2023-05-17T16:17:35.723Z,15.90
2023-05-17T16:20:03.409Z,16.10
2023-05-17T16:22:31.061Z,16.20
2023-05-17T16:24:59.207Z,16.30
2023-05-17T16:27:26.965Z,16.50
2023-05-17T16:29:54.648Z,16.70
2023-05-17T16:32:22.318Z,16.80
2023-05-17T16:34:49.892Z,16.80
2023-05-17T16:37:17.500Z,16.90
2023-05-17T16:39:45.021Z,16.90
2023-05-17T16:42:12.565Z,16.90
2023-05-17T16:44:40.123Z,16.80
2023-05-17T16:47:07.722Z,16.80
2023-05-17T16:49:36.695Z,16.80
2023-05-17T16:52:04.496Z,16.70
2023-05-17T16:54:33.670Z,16.70
2023-05-17T16:57:07.215Z,16.60
2023-05-17T16:59:36.124Z,16.50
2023-05-17T17:02:04.469Z,16.50
2023-05-17T17:04:32.327Z,16.40
2023-05-17T17:07:00.035Z,16.40
2023-05-17T17:09:28.004Z,16.40
2023-05-17T17:11:55.484Z,16.40
2023-05-17T17:14:24.282Z,16.30
2023-05-17T17:16:51.932Z,16.30
2023-05-17T17:19:19.525Z,16.10
2023-05-17T17:21:47.160Z,16.10
2023-05-17T17:24:14.846Z,16.00
2023-05-17T17:26:42.368Z,16.00
2023-05-17T17:29:10.428Z,16.00
2023-05-17T17:31:38.200Z,16.00
2023-05-17T17:34:05.888Z,15.90
2023-05-17T17:36:33.392Z,15.80
2023-05-17T17:39:01.058Z,15.80
2023-05-17T17:41:28.830Z,15.70
2023-05-17T17:43:56.383Z,15.60
2023-05-17T17:46:25.350Z,15.50
2023-05-17T17:48:54.345Z,15.50
2023-05-17T17:51:23.646Z,15.50
2023-05-17T17:53:53.186Z,15.40
2023-05-17T17:56:21.115Z,15.30
2023-05-17T17:58:48.645Z,15.30
2023-05-17T18:01:16.231Z,15.30
2023-05-17T18:03:43.648Z,15.20
2023-05-17T18:06:11.191Z,15.20
2023-05-17T18:08:38.733Z,15.30
2023-05-17T18:11:06.338Z,15.30
2023-05-17T18:13:33.943Z,15.20
2023-05-17T18:16:01.645Z,15.20
2023-05-17T18:18:29.203Z,15.10
2023-05-17T18:20:58.049Z,15.00
2023-05-17T18:23:25.821Z,15.00
2023-05-17T18:25:53.375Z,15.00
2023-05-17T18:28:33.492Z,15.00
2023-05-17T18:31:08.558Z,15.00
2023-05-17T18:33:36.078Z,14.80
2023-05-17T18:36:03.787Z,14.90
2023-05-17T18:38:31.373Z,14.90
2023-05-17T18:40:58.896Z,14.60
2023-05-17T18:43:26.372Z,14.60
2023-05-17T18:45:53.950Z,14.50
2023-05-17T18:48:22.245Z,14.40
2023-05-17T18:50:49.808Z,14.30
2023-05-17T18:53:17.274Z,14.20
2023-05-17T18:55:44.835Z,14.20
2023-05-17T18:58:12.309Z,14.10
2023-05-17T19:00:39.977Z,14.00
2023-05-17T19:03:07.519Z,14.00
2023-05-17T19:05:35.103Z,14.00
2023-05-17T19:08:02.642Z,13.90
2023-05-17T19:10:30.474Z,13.80
2023-05-17T19:12:58.204Z,13.80
2023-05-17T19:15:25.781Z,13.80
2023-05-17T19:17:53.403Z,13.90
2023-05-17T19:20:21.000Z,13.80
2023-05-17T19:22:48.548Z,13.60
2023-05-17T19:25:17.172Z,13.60
2023-05-17T19:27:46.044Z,13.60
2023-05-17T19:30:13.721Z,13.50
2023-05-17T19:32:41.528Z,13.40
2023-05-17T19:35:09.660Z,13.20
2023-05-17T19:37:37.472Z,13.10
2023-05-17T19:40:06.093Z,13.00
2023-05-17T19:42:33.817Z,13.10
2023-05-17T19:45:01.953Z,13.10
2023-05-17T19:47:29.504Z,13.00
2023-05-17T19:49:57.078Z,12.90
2023-05-17T19:52:24.593Z,12.80
2023-05-17T19:54:52.165Z,12.70
2023-05-17T19:57:19.633Z,12.70
2023-05-17T19:59:47.122Z,12.70
2023-05-17T20:02:14.815Z,12.70
2023-05-17T20:04:42.357Z,12.60
2023-05-17T20:07:11.180Z,12.50
2023-05-17T20:09:39.256Z,12.60
2023-05-17T20:12:07.354Z,12.40
2023-05-17T20:14:35.159Z,12.30
2023-05-17T20:17:04.237Z,12.10
2023-05-17T20:19:31.939Z,12.20
2023-05-17T20:21:59.834Z,12.20
2023-05-17T20:24:29.132Z,12.20
2023-05-17T20:26:59.449Z,12.20
2023-05-17T20:29:26.996Z,12.10
2023-05-17T20:31:54.515Z,12.00
2023-05-17T20:34:22.232Z,12.00
2023-05-17T20:36:49.688Z,11.90
2023-05-17T20:39:17.321Z,11.90
2023-05-17T20:41:44.942Z,11.90
2023-05-17T20:44:12.678Z,11.80
2023-05-17T20:46:40.175Z,11.80
2023-05-17T20:49:09.793Z,11.80
2023-05-17T20:51:37.792Z,11.80
2023-05-17T20:54:06.355Z,11.80
2023-05-17T20:56:35.110Z,11.80
2023-05-17T20:59:03.736Z,11.90
2023-05-17T21:01:31.423Z,11.70
2023-05-17T21:03:59.768Z,11.70
2023-05-17T21:06:30.228Z,11.70
2023-05-17T21:09:02.688Z,11.80
2023-05-17T21:11:30.408Z,11.70
2023-05-17T21:14:00.669Z,11.70
2023-05-17T21:16:28.277Z,11.70
2023-05-17T21:18:55.951Z,11.70
2023-05-17T21:21:23.461Z,11.70
2023-05-17T21:23:51.579Z,11.70
2023-05-17T21:26:19.092Z,11.80
2023-05-17T21:28:46.576Z,11.70
2023-05-17T21:31:14.773Z,11.80
2023-05-17T21:33:42.270Z,11.70
2023-05-17T21:36:09.874Z,11.60
2023-05-17T21:38:37.591Z,11.80
2023-05-17T21:41:05.177Z,11.80
2023-05-17T21:43:32.756Z,11.80
2023-05-17T21:46:00.398Z,11.50
2023-05-17T21:48:28.050Z,11.70
2023-05-17T21:50:55.680Z,11.50
2023-05-17T21:53:23.227Z,11.50
2023-05-17T21:56:01.198Z,11.50
2023-05-17T21:58:31.093Z,11.50
2023-05-17T22:00:58.694Z,11.60
2023-05-17T22:03:26.927Z,11.50
2023-05-17T22:05:54.537Z,11.50
2023-05-17T22:08:22.072Z,11.40
2023-05-17T22:10:50.339Z,11.50
2023-05-17T22:13:18.437Z,11.40
2023-05-17T22:15:46.158Z,11.50
2023-05-17T22:18:13.923Z,11.50
2023-05-17T22:20:41.553Z,11.30
2023-05-17T22:23:09.971Z,11.50
2023-05-17T22:25:37.669Z,11.50
2023-05-17T22:28:05.290Z,11.40
2023-05-17T22:30:33.203Z,11.40
2023-05-17T22:33:01.522Z,11.60
2023-05-17T22:35:29.061Z,11.30
2023-05-17T22:37:56.635Z,11.40
2023-05-17T22:40:24.365Z,11.40
2023-05-17T22:42:52.089Z,11.40
2023-05-17T22:45:19.637Z,11.40
2023-05-17T22:47:47.472Z,11.40
2023-05-17T22:50:15.822Z,11.40
2023-05-17T22:52:46.154Z,11.30
2023-05-17T22:55:13.817Z,11.40
2023-05-17T22:57:41.259Z,11.30
2023-05-17T23:00:11.492Z,11.50
2023-05-17T23:02:39.470Z,11.30
2023-05-17T23:05:07.234Z,11.40
2023-05-17T23:07:38.450Z,11.30
2023-05-17T23:10:10.296Z,11.30
2023-05-17T23:12:38.694Z,11.50
2023-05-17T23:15:07.914Z,11.30
2023-05-17T23:17:36.472Z,11.30
2023-05-17T23:20:08.200Z,11.30
2023-05-17T23:22:39.698Z,11.30
2023-05-17T23:25:07.502Z,11.30
2023-05-17T23:27:36.118Z,11.30
2023-05-17T23:30:04.665Z,11.20
2023-05-17T23:32:32.740Z,11.20
2023-05-17T23:35:04.974Z,11.30
2023-05-17T23:37:33.659Z,11.10
2023-05-17T23:40:01.532Z,11.30
2023-05-17T23:42:32.403Z,11.20
2023-05-17T23:45:00.721Z,11.10
2023-05-17T23:47:28.581Z,11.40
2023-05-17T23:49:56.486Z,11.20
2023-05-17T23:52:24.429Z,11.50
2023-05-17T23:54:52.036Z,11.40
2023-05-17T23:57:19.526Z,11.40
2023-05-17T23:59:47.062Z,11.30
